createdAt,value
2022-10-25T00:00:21.676Z,1018.29
2022-10-25T00:01:21.793Z,1018.36
2022-10-25T00:02:21.884Z,1018.37
2022-10-25T00:03:21.643Z,1018.27
2022-10-25T00:05:21.673Z,1018.27
2022-10-25T00:06:21.645Z,1018.3
2022-10-25T00:07:21.680Z,1018.29
2022-10-25T00:08:21.705Z,1018.29
2022-10-25T00:09:21.654Z,1018.29
2022-10-25T00:10:24.884Z,1018.34
2022-10-25T00:11:21.685Z,1018.28
2022-10-25T00:12:21.669Z,1018.31
2022-10-25T00:13:21.664Z,1018.37
2022-10-25T00:14:21.658Z,1018.35
2022-10-25T00:15:21.670Z,1018.35
2022-10-25T00:16:21.663Z,1018.37
2022-10-25T00:17:21.672Z,1018.4
2022-10-25T00:18:21.666Z,1018.39
2022-10-25T00:19:21.661Z,1018.54
2022-10-25T00:20:21.663Z,1018.41
2022-10-25T00:21:21.662Z,1018.48
2022-10-25T00:22:21.667Z,1018.39
2022-10-25T00:23:21.663Z,1018.54
2022-10-25T00:24:21.658Z,1018.42
2022-10-25T00:25:21.659Z,1018.41
2022-10-25T00:26:21.658Z,1018.48
2022-10-25T00:27:21.667Z,1018.48
2022-10-25T00:28:21.664Z,1018.48
2022-10-25T00:29:21.663Z,1018.48
2022-10-25T00:30:21.676Z,1018.49
2022-10-25T00:31:21.662Z,1018.47
2022-10-25T00:32:21.673Z,1018.47
2022-10-25T00:33:21.663Z,1018.58
2022-10-25T00:34:21.663Z,1018.5
2022-10-25T00:35:21.661Z,1018.51
2022-10-25T00:36:21.656Z,1018.57
2022-10-25T00:37:21.693Z,1018.54
2022-10-25T00:38:21.659Z,1018.58
2022-10-25T00:39:21.657Z,1018.63
2022-10-25T00:40:21.660Z,1018.58
2022-10-25T00:41:21.663Z,1018.63
2022-10-25T00:42:21.668Z,1018.72
2022-10-25T00:43:21.659Z,1018.68
2022-10-25T00:44:21.657Z,1018.74
2022-10-25T00:45:21.675Z,1018.61
2022-10-25T00:46:21.658Z,1018.66
2022-10-25T00:47:21.668Z,1018.69
2022-10-25T00:48:21.657Z,1018.75
2022-10-25T00:49:21.654Z,1018.73
2022-10-25T00:50:21.665Z,1018.66
2022-10-25T00:51:21.704Z,1018.68
2022-10-25T00:52:21.679Z,1018.69
2022-10-25T00:53:21.665Z,1018.65
2022-10-25T00:55:21.665Z,1018.69
2022-10-25T00:56:21.666Z,1018.66
2022-10-25T00:57:21.760Z,1018.7
2022-10-25T00:58:21.666Z,1018.65
2022-10-25T00:59:21.649Z,1018.64
2022-10-25T01:00:21.697Z,1018.59
2022-10-25T01:01:21.754Z,1018.51
2022-10-25T01:02:21.765Z,1018.52
2022-10-25T01:03:21.731Z,1018.47
2022-10-25T01:04:21.649Z,1018.49
2022-10-25T01:05:21.641Z,1018.43
2022-10-25T01:06:21.685Z,1018.4
2022-10-25T01:07:21.663Z,1018.42
2022-10-25T01:08:21.646Z,1018.39
2022-10-25T01:09:21.648Z,1018.39
2022-10-25T01:10:21.645Z,1018.36
2022-10-25T01:11:21.648Z,1018.36
2022-10-25T01:12:21.665Z,1018.41
2022-10-25T01:13:21.643Z,1018.42
2022-10-25T01:14:21.651Z,1018.35
2022-10-25T01:15:21.745Z,1018.39
2022-10-25T01:16:21.640Z,1018.38
2022-10-25T01:17:21.669Z,1018.36
2022-10-25T01:18:21.655Z,1018.32
2022-10-25T01:19:21.736Z,1018.37
2022-10-25T01:20:21.661Z,1018.32
2022-10-25T01:21:21.663Z,1018.36
2022-10-25T01:22:21.682Z,1018.35
2022-10-25T01:23:21.666Z,1018.33
2022-10-25T01:24:21.660Z,1018.35
2022-10-25T01:25:21.664Z,1018.33
2022-10-25T01:26:21.665Z,1018.37
2022-10-25T01:27:21.697Z,1018.35
2022-10-25T01:28:21.670Z,1018.39
2022-10-25T01:29:21.665Z,1018.34
2022-10-25T01:30:21.682Z,1018.4
2022-10-25T01:31:21.655Z,1018.38
2022-10-25T01:32:21.686Z,1018.32
2022-10-25T01:33:21.655Z,1018.31
2022-10-25T01:34:21.665Z,1018.28
2022-10-25T01:35:21.662Z,1018.32
2022-10-25T01:36:21.667Z,1018.29
2022-10-25T01:37:21.827Z,1018.25
2022-10-25T01:38:21.661Z,1018.19
2022-10-25T01:39:21.664Z,1018.19
2022-10-25T01:40:21.657Z,1018.23
2022-10-25T01:41:21.669Z,1018.22
2022-10-25T01:42:21.669Z,1018.26
2022-10-25T01:43:21.662Z,1018.25
2022-10-25T01:44:21.665Z,1018.19
2022-10-25T01:45:21.679Z,1018.28
2022-10-25T01:46:21.663Z,1018.29
2022-10-25T01:47:21.670Z,1018.22
2022-10-25T01:48:21.670Z,1018.17
2022-10-25T01:49:21.658Z,1018.14
2022-10-25T01:50:21.665Z,1018.25
2022-10-25T01:51:21.666Z,1018.23
2022-10-25T01:52:21.669Z,1018.23
2022-10-25T01:53:21.661Z,1018.23
2022-10-25T01:54:21.657Z,1018.2
2022-10-25T01:55:21.664Z,1018.19
2022-10-25T01:56:21.662Z,1018.16
2022-10-25T01:57:21.669Z,1018.22
2022-10-25T01:58:21.665Z,1018.18
2022-10-25T01:59:21.658Z,1018.18
2022-10-25T02:00:21.684Z,1018.18
2022-10-25T02:01:21.842Z,1018.14
2022-10-25T02:02:21.672Z,1018.12
2022-10-25T02:03:21.661Z,1018.16
2022-10-25T02:04:21.661Z,1018.16
2022-10-25T02:05:21.665Z,1018.22
2022-10-25T02:06:21.661Z,1018.22
2022-10-25T02:07:21.674Z,1018.19
2022-10-25T02:08:21.653Z,1018.16
2022-10-25T02:09:21.643Z,1018.16
2022-10-25T02:10:21.650Z,1018.16
2022-10-25T02:11:21.650Z,1018.15
2022-10-25T02:12:21.664Z,1018.12
2022-10-25T02:13:21.648Z,1018.16
2022-10-25T02:14:21.643Z,1018.16
2022-10-25T02:15:21.667Z,1018.13
2022-10-25T02:16:21.641Z,1018.16
2022-10-25T02:17:21.663Z,1018.24
2022-10-25T02:18:21.702Z,1018.23
2022-10-25T02:19:21.644Z,1018.23
2022-10-25T02:20:21.660Z,1018.3
2022-10-25T02:21:21.658Z,1018.31
2022-10-25T02:22:21.661Z,1018.31
2022-10-25T02:23:21.648Z,1018.37
2022-10-25T02:24:21.642Z,1018.35
2022-10-25T02:25:21.667Z,1018.32
2022-10-25T02:26:21.642Z,1018.31
2022-10-25T02:27:21.671Z,1018.38
2022-10-25T02:28:21.657Z,1018.39
2022-10-25T02:29:21.665Z,1018.4
2022-10-25T02:30:21.668Z,1018.43
2022-10-25T02:31:21.660Z,1018.39
2022-10-25T02:32:21.680Z,1018.47
2022-10-25T02:33:21.664Z,1018.4
2022-10-25T02:34:21.661Z,1018.42
2022-10-25T02:35:21.668Z,1018.42
2022-10-25T02:36:21.661Z,1018.4
2022-10-25T02:37:21.686Z,1018.43
2022-10-25T02:38:21.657Z,1018.43
2022-10-25T02:39:21.665Z,1018.49
2022-10-25T02:40:21.662Z,1018.46
2022-10-25T02:41:21.661Z,1018.45
2022-10-25T02:42:21.739Z,1018.49
2022-10-25T02:43:21.687Z,1018.49
2022-10-25T02:44:21.665Z,1018.54
2022-10-25T02:45:21.697Z,1018.57
2022-10-25T02:46:21.660Z,1018.55
2022-10-25T02:47:21.676Z,1018.59
2022-10-25T02:48:21.685Z,1018.47
2022-10-25T02:49:21.666Z,1018.49
2022-10-25T02:50:21.662Z,1018.53
2022-10-25T02:51:21.657Z,1018.54
2022-10-25T02:52:21.681Z,1018.49
2022-10-25T02:53:21.669Z,1018.5
2022-10-25T02:54:21.666Z,1018.49
2022-10-25T02:55:21.665Z,1018.48
2022-10-25T02:56:21.651Z,1018.49
2022-10-25T02:57:21.672Z,1018.48
2022-10-25T02:58:21.658Z,1018.47
2022-10-25T02:59:21.662Z,1018.52
2022-10-25T03:00:21.673Z,1018.48
2022-10-25T03:01:21.689Z,1018.5
2022-10-25T03:02:21.691Z,1018.47
2022-10-25T03:03:21.658Z,1018.48
2022-10-25T03:04:21.662Z,1018.51
2022-10-25T03:05:21.657Z,1018.54
2022-10-25T03:06:21.647Z,1018.51
2022-10-25T03:07:21.676Z,1018.49
2022-10-25T03:08:21.676Z,1018.51
2022-10-25T03:09:21.665Z,1018.51
2022-10-25T03:10:21.664Z,1018.53
2022-10-25T03:11:21.661Z,1018.53
2022-10-25T03:12:21.678Z,1018.57
2022-10-25T03:13:21.662Z,1018.55
2022-10-25T03:14:21.660Z,1018.52
2022-10-25T03:15:21.676Z,1018.55
2022-10-25T03:16:21.665Z,1018.52
2022-10-25T03:17:21.672Z,1018.55
2022-10-25T03:18:21.660Z,1018.52
2022-10-25T03:19:21.653Z,1018.47
2022-10-25T03:20:21.667Z,1018.52
2022-10-25T03:21:21.647Z,1018.5
2022-10-25T03:22:21.667Z,1018.53
2022-10-25T03:23:21.644Z,1018.49
2022-10-25T03:24:21.650Z,1018.51
2022-10-25T03:25:21.745Z,1018.5
2022-10-25T03:26:21.648Z,1018.55
2022-10-25T03:27:21.659Z,1018.6
2022-10-25T03:28:21.643Z,1018.56
2022-10-25T03:29:21.647Z,1018.58
2022-10-25T03:30:21.672Z,1018.61
2022-10-25T03:31:21.659Z,1018.61
2022-10-25T03:32:21.667Z,1018.6
2022-10-25T03:33:21.714Z,1018.69
2022-10-25T03:34:21.649Z,1018.72
2022-10-25T03:35:21.659Z,1018.68
2022-10-25T03:36:21.642Z,1018.66
2022-10-25T03:37:21.670Z,1018.66
2022-10-25T03:38:21.647Z,1018.66
2022-10-25T03:39:21.652Z,1018.68
2022-10-25T03:40:21.648Z,1018.66
2022-10-25T03:41:21.643Z,1018.63
2022-10-25T03:42:21.675Z,1018.66
2022-10-25T03:44:21.651Z,1018.71
2022-10-25T03:45:21.673Z,1018.65
2022-10-25T03:46:21.659Z,1018.68
2022-10-25T03:47:21.692Z,1018.65
2022-10-25T03:48:21.665Z,1018.59
2022-10-25T03:49:21.656Z,1018.64
2022-10-25T03:50:21.665Z,1018.62
2022-10-25T03:51:21.660Z,1018.64
2022-10-25T03:52:21.675Z,1018.68
2022-10-25T03:53:21.662Z,1018.65
2022-10-25T03:54:24.363Z,1018.65
2022-10-25T03:55:21.649Z,1018.63
2022-10-25T03:56:21.662Z,1018.59
2022-10-25T03:57:21.687Z,1018.61
2022-10-25T03:58:21.663Z,1018.66
2022-10-25T03:59:21.668Z,1018.64
2022-10-25T04:00:21.710Z,1018.6
2022-10-25T04:01:21.737Z,1018.58
2022-10-25T04:02:21.667Z,1018.58
2022-10-25T04:03:21.659Z,1018.65
2022-10-25T04:04:21.669Z,1018.65
2022-10-25T04:05:21.659Z,1018.69
2022-10-25T04:06:21.644Z,1018.58
2022-10-25T04:07:21.675Z,1018.62
2022-10-25T04:08:21.665Z,1018.63
2022-10-25T04:09:21.659Z,1018.63
2022-10-25T04:10:21.655Z,1018.68
2022-10-25T04:11:21.653Z,1018.73
2022-10-25T04:12:21.669Z,1018.78
2022-10-25T04:13:21.656Z,1018.66
2022-10-25T04:14:21.705Z,1018.65
2022-10-25T04:15:21.674Z,1018.79
2022-10-25T04:16:21.644Z,1018.73
2022-10-25T04:17:21.680Z,1018.74
2022-10-25T04:18:21.660Z,1018.72
2022-10-25T04:19:21.661Z,1018.83
2022-10-25T04:20:21.660Z,1018.68
2022-10-25T04:21:21.666Z,1018.75
2022-10-25T04:22:21.676Z,1018.69
2022-10-25T04:23:21.664Z,1018.75
2022-10-25T04:24:21.664Z,1018.75
2022-10-25T04:25:21.661Z,1018.81
2022-10-25T04:26:21.664Z,1018.83
2022-10-25T04:27:21.674Z,1018.85
2022-10-25T04:28:21.663Z,1018.85
2022-10-25T04:29:21.660Z,1018.88
2022-10-25T04:30:21.682Z,1018.89
2022-10-25T04:31:21.662Z,1018.94
2022-10-25T04:32:21.679Z,1018.94
2022-10-25T04:33:21.663Z,1018.99
2022-10-25T04:34:21.663Z,1018.98
2022-10-25T04:35:21.662Z,1018.95
2022-10-25T04:36:21.664Z,1018.97
2022-10-25T04:37:21.834Z,1018.96
2022-10-25T04:38:21.662Z,1018.96
2022-10-25T04:39:21.669Z,1018.96
2022-10-25T04:40:22.686Z,1018.94
2022-10-25T04:41:21.651Z,1018.92
2022-10-25T04:42:21.663Z,1018.94
2022-10-25T04:43:21.644Z,1018.93
2022-10-25T04:44:21.650Z,1018.88
2022-10-25T04:45:21.675Z,1018.94
2022-10-25T04:46:21.646Z,1018.95
2022-10-25T04:47:21.660Z,1018.95
2022-10-25T04:48:21.648Z,1018.94
2022-10-25T04:49:21.649Z,1018.97
2022-10-25T04:50:21.648Z,1018.93
2022-10-25T04:51:21.645Z,1018.98
2022-10-25T04:52:21.664Z,1018.95
2022-10-25T04:53:21.644Z,1018.96
2022-10-25T04:54:21.648Z,1018.94
2022-10-25T04:55:21.645Z,1018.93
2022-10-25T04:56:21.646Z,1018.98
2022-10-25T04:57:21.760Z,1018.94
2022-10-25T04:58:21.646Z,1018.87
2022-10-25T04:59:21.647Z,1018.96
2022-10-25T05:00:21.679Z,1018.98
2022-10-25T05:01:21.691Z,1018.95
2022-10-25T05:02:21.669Z,1018.96
2022-10-25T05:03:21.692Z,1019
2022-10-25T05:04:21.668Z,1018.98
2022-10-25T05:05:21.662Z,1018.98
2022-10-25T05:06:21.661Z,1019
2022-10-25T05:07:21.671Z,1019.05
2022-10-25T05:08:21.666Z,1019.03
2022-10-25T05:09:21.661Z,1019.03
2022-10-25T05:10:21.653Z,1019.03
2022-10-25T05:11:21.664Z,1019.06
2022-10-25T05:12:21.748Z,1019.03
2022-10-25T05:13:21.668Z,1019.05
2022-10-25T05:14:21.662Z,1019.06
2022-10-25T05:15:21.676Z,1019.05
2022-10-25T05:16:21.662Z,1019.02
2022-10-25T05:17:21.674Z,1019.04
2022-10-25T05:18:21.664Z,1019.03
2022-10-25T05:19:21.658Z,1019
2022-10-25T05:20:21.648Z,1019.01
2022-10-25T05:21:21.709Z,1019.03
2022-10-25T05:22:21.673Z,1019.08
2022-10-25T05:23:21.663Z,1019.04
2022-10-25T05:24:21.677Z,1019.03
2022-10-25T05:25:21.673Z,1019.05
2022-10-25T05:26:21.688Z,1019.05
2022-10-25T05:27:21.673Z,1019.07
2022-10-25T05:28:21.669Z,1019.1
2022-10-25T05:29:21.663Z,1019.11
2022-10-25T05:30:21.676Z,1019.1
2022-10-25T05:31:21.665Z,1019.16
2022-10-25T05:32:21.669Z,1019.17
2022-10-25T05:33:21.670Z,1019.19
2022-10-25T05:34:21.660Z,1019.15
2022-10-25T05:35:21.658Z,1019.11
2022-10-25T05:36:21.662Z,1019.16
2022-10-25T05:37:21.677Z,1019.15
2022-10-25T05:38:21.665Z,1019.19
2022-10-25T05:39:21.660Z,1019.18
2022-10-25T05:40:21.648Z,1019.22
2022-10-25T05:41:21.660Z,1019.21
2022-10-25T05:42:21.671Z,1019.25
2022-10-25T05:43:21.665Z,1019.24
2022-10-25T05:44:21.658Z,1019.25
2022-10-25T05:45:21.670Z,1019.24
2022-10-25T05:46:21.667Z,1019.23
2022-10-25T05:47:21.677Z,1019.22
2022-10-25T05:48:21.666Z,1019.22
2022-10-25T05:49:21.669Z,1019.27
2022-10-25T05:50:21.644Z,1019.24
2022-10-25T05:51:33.048Z,1019.29
2022-10-25T05:52:21.683Z,1019.26
2022-10-25T05:53:21.645Z,1019.28
2022-10-25T05:54:21.648Z,1019.31
2022-10-25T05:55:21.642Z,1019.31
2022-10-25T05:56:21.693Z,1019.31
2022-10-25T05:57:21.659Z,1019.31
2022-10-25T05:58:21.643Z,1019.32
2022-10-25T05:59:21.716Z,1019.35
2022-10-25T06:00:21.660Z,1019.38
2022-10-25T06:01:21.778Z,1019.41
2022-10-25T06:02:21.831Z,1019.41
2022-10-25T06:03:21.647Z,1019.43
2022-10-25T06:04:21.656Z,1019.46
2022-10-25T06:05:21.650Z,1019.44
2022-10-25T06:06:21.644Z,1019.47
2022-10-25T06:07:21.665Z,1019.48
2022-10-25T06:08:21.649Z,1019.49
2022-10-25T06:09:21.649Z,1019.49
2022-10-25T06:10:21.643Z,1019.43
2022-10-25T06:11:21.669Z,1019.45
2022-10-25T06:12:21.678Z,1019.47
2022-10-25T06:13:21.661Z,1019.45
2022-10-25T06:14:21.667Z,1019.46
2022-10-25T06:15:21.672Z,1019.43
2022-10-25T06:16:21.662Z,1019.49
2022-10-25T06:17:21.677Z,1019.46
2022-10-25T06:18:21.667Z,1019.47
2022-10-25T06:19:21.660Z,1019.49
2022-10-25T06:20:21.644Z,1019.52
2022-10-25T06:21:21.668Z,1019.52
2022-10-25T06:22:21.675Z,1019.51
2022-10-25T06:23:21.662Z,1019.5
2022-10-25T06:24:21.662Z,1019.5
2022-10-25T06:25:21.669Z,1019.5
2022-10-25T06:26:21.665Z,1019.52
2022-10-25T06:27:21.671Z,1019.55
2022-10-25T06:28:21.669Z,1019.55
2022-10-25T06:29:21.657Z,1019.56
2022-10-25T06:30:21.758Z,1019.56
2022-10-25T06:31:21.669Z,1019.62
2022-10-25T06:32:21.678Z,1019.63
2022-10-25T06:33:24.460Z,1019.69
2022-10-25T06:34:21.663Z,1019.66
2022-10-25T06:35:21.660Z,1019.71
2022-10-25T06:36:21.661Z,1019.73
2022-10-25T06:37:21.683Z,1019.75
2022-10-25T06:38:21.663Z,1019.76
2022-10-25T06:39:21.655Z,1019.74
2022-10-25T06:41:21.670Z,1019.75
2022-10-25T06:42:21.675Z,1019.75
2022-10-25T06:43:21.658Z,1019.78
2022-10-25T06:44:21.673Z,1019.78
2022-10-25T06:45:21.675Z,1019.82
2022-10-25T06:46:21.666Z,1019.82
2022-10-25T06:47:21.674Z,1019.8
2022-10-25T06:48:21.669Z,1019.82
2022-10-25T06:49:21.662Z,1019.8
2022-10-25T06:50:21.675Z,1019.78
2022-10-25T06:51:21.663Z,1019.84
2022-10-25T06:52:21.675Z,1019.84
2022-10-25T06:53:21.662Z,1019.87
2022-10-25T06:54:21.670Z,1019.82
2022-10-25T06:55:21.666Z,1019.86
2022-10-25T06:56:21.653Z,1019.85
2022-10-25T06:57:21.681Z,1019.84
2022-10-25T06:58:21.656Z,1019.84
2022-10-25T06:59:21.661Z,1019.82
2022-10-25T07:00:21.686Z,1019.84
2022-10-25T07:01:21.829Z,1019.8
2022-10-25T07:02:21.825Z,1019.79
2022-10-25T07:03:21.666Z,1019.84
2022-10-25T07:04:21.661Z,1019.85
2022-10-25T07:05:21.645Z,1019.86
2022-10-25T07:06:21.683Z,1019.87
2022-10-25T07:07:21.687Z,1019.85
2022-10-25T07:08:21.648Z,1019.94
2022-10-25T07:09:21.649Z,1019.94
2022-10-25T07:10:21.655Z,1019.91
2022-10-25T07:11:21.660Z,1019.88
2022-10-25T07:12:21.671Z,1019.85
2022-10-25T07:13:21.647Z,1019.89
2022-10-25T07:14:21.654Z,1019.97
2022-10-25T07:15:21.666Z,1019.86
2022-10-25T07:16:21.658Z,1019.92
2022-10-25T07:17:21.663Z,1019.98
2022-10-25T07:18:21.641Z,1019.97
2022-10-25T07:19:21.645Z,1019.96
2022-10-25T07:20:21.675Z,1019.96
2022-10-25T07:21:21.649Z,1019.99
2022-10-25T07:22:21.669Z,1019.99
2022-10-25T07:23:21.669Z,1020.02
2022-10-25T07:24:21.656Z,1019.97
2022-10-25T07:25:21.663Z,1020.01
2022-10-25T07:26:21.667Z,1020.04
2022-10-25T07:27:21.678Z,1020.02
2022-10-25T07:28:21.667Z,1020.01
2022-10-25T07:29:21.659Z,1020
2022-10-25T07:30:21.673Z,1019.96
2022-10-25T07:31:21.661Z,1020.01
2022-10-25T07:32:21.673Z,1019.97
2022-10-25T07:33:21.662Z,1019.98
2022-10-25T07:34:21.659Z,1019.96
2022-10-25T07:35:21.688Z,1019.95
2022-10-25T07:36:21.751Z,1019.98
2022-10-25T07:37:21.675Z,1019.97
2022-10-25T07:38:25.575Z,1019.98
2022-10-25T07:39:21.659Z,1019.99
2022-10-25T07:40:21.654Z,1019.98
2022-10-25T07:41:21.669Z,1019.98
2022-10-25T07:42:21.667Z,1020.02
2022-10-25T07:43:21.661Z,1019.93
2022-10-25T07:44:24.944Z,1019.96
2022-10-25T07:45:24.388Z,1019.99
2022-10-25T07:46:21.659Z,1019.95
2022-10-25T07:47:21.670Z,1019.94
2022-10-25T07:48:21.659Z,1019.99
2022-10-25T07:49:21.664Z,1019.99
2022-10-25T07:50:21.663Z,1019.99
2022-10-25T07:51:21.661Z,1020.02
2022-10-25T07:52:21.675Z,1019.96
2022-10-25T07:53:21.663Z,1019.95
2022-10-25T07:54:21.663Z,1020.04
2022-10-25T07:55:21.661Z,1019.96
2022-10-25T07:56:23.681Z,1019.94
2022-10-25T07:57:21.682Z,1019.91
2022-10-25T07:58:21.663Z,1019.98
2022-10-25T07:59:21.660Z,1019.99
2022-10-25T08:00:21.729Z,1019.93
2022-10-25T08:01:21.748Z,1019.94
2022-10-25T08:02:24.233Z,1019.95
2022-10-25T08:03:21.711Z,1019.93
2022-10-25T08:04:21.683Z,1019.94
2022-10-25T08:05:21.684Z,1019.98
2022-10-25T08:06:21.662Z,1019.93
2022-10-25T08:07:21.677Z,1019.94
2022-10-25T08:08:21.668Z,1020.02
2022-10-25T08:09:37.221Z,1020.02
2022-10-25T08:10:21.737Z,1020.01
2022-10-25T08:11:21.675Z,1019.99
2022-10-25T08:12:22.641Z,1020
2022-10-25T08:13:21.729Z,1020.02
2022-10-25T08:15:21.817Z,1020.06
2022-10-25T08:16:21.654Z,1020.11
2022-10-25T08:17:21.666Z,1020.04
2022-10-25T08:18:21.774Z,1020.14
2022-10-25T08:19:21.651Z,1020.06
2022-10-25T08:20:26.208Z,1020.1
2022-10-25T08:21:21.654Z,1020.08
2022-10-25T08:22:21.663Z,1020.13
2022-10-25T08:23:21.654Z,1020.08
2022-10-25T08:24:21.656Z,1020.1
2022-10-25T08:25:23.562Z,1020.09
2022-10-25T08:26:21.664Z,1020.1
2022-10-25T08:27:21.804Z,1020.08
2022-10-25T08:28:21.851Z,1020.11
2022-10-25T08:29:21.650Z,1020.04
2022-10-25T08:30:21.693Z,1020.02
2022-10-25T08:31:21.652Z,1020
2022-10-25T08:32:21.665Z,1020.03
2022-10-25T08:33:21.649Z,1019.97
2022-10-25T08:34:21.662Z,1019.99
2022-10-25T08:35:21.647Z,1019.99
2022-10-25T08:36:21.659Z,1020.05
2022-10-25T08:37:21.679Z,1020.05
2022-10-25T08:38:21.657Z,1020.03
2022-10-25T08:39:21.667Z,1020.01
2022-10-25T08:40:21.658Z,1020.11
2022-10-25T08:41:21.663Z,1020.11
2022-10-25T08:42:21.669Z,1020.08
2022-10-25T08:43:21.669Z,1019.97
2022-10-25T08:44:21.663Z,1020.08
2022-10-25T08:45:21.676Z,1020.09
2022-10-25T08:46:21.661Z,1020.14
2022-10-25T08:47:21.667Z,1020.08
2022-10-25T08:48:22.085Z,1020.09
2022-10-25T08:49:21.667Z,1020.01
2022-10-25T08:50:21.668Z,1020.04
2022-10-25T08:51:21.665Z,1020.03
2022-10-25T08:52:21.668Z,1020.03
2022-10-25T08:53:21.892Z,1020.13
2022-10-25T08:54:21.673Z,1020.05
2022-10-25T08:55:21.668Z,1020.06
2022-10-25T08:56:21.669Z,1020.06
2022-10-25T08:57:21.722Z,1020.05
2022-10-25T08:58:21.856Z,1020.1
2022-10-25T08:59:21.668Z,1020.05
2022-10-25T09:00:21.659Z,1020.04
2022-10-25T09:01:21.762Z,1020.08
2022-10-25T09:02:21.803Z,1020.02
2022-10-25T09:03:22.467Z,1019.97
2022-10-25T09:04:21.669Z,1020.02
2022-10-25T09:05:21.666Z,1019.97
2022-10-25T09:06:21.661Z,1020.06
2022-10-25T09:07:21.660Z,1019.98
2022-10-25T09:08:24.625Z,1020.09
2022-10-25T09:09:21.664Z,1020.09
2022-10-25T09:10:21.663Z,1020.01
2022-10-25T09:11:21.653Z,1020.05
2022-10-25T09:12:21.662Z,1020.06
2022-10-25T09:13:22.053Z,1020.06
2022-10-25T09:14:21.684Z,1020.09
2022-10-25T09:15:21.704Z,1020.13
2022-10-25T09:16:21.668Z,1020.09
2022-10-25T09:17:21.665Z,1020.15
2022-10-25T09:18:21.981Z,1020.09
2022-10-25T09:19:21.668Z,1020.08
2022-10-25T09:20:21.663Z,1020.06
2022-10-25T09:21:22.972Z,1020.08
2022-10-25T09:22:21.752Z,1020.04
2022-10-25T09:24:21.994Z,1020.11
2022-10-25T09:25:21.643Z,1020.1
2022-10-25T09:26:21.647Z,1020.12
2022-10-25T09:27:21.649Z,1020.09
2022-10-25T09:28:21.883Z,1020.19
2022-10-25T09:29:21.665Z,1020.16
2022-10-25T09:30:21.651Z,1020.17
2022-10-25T09:31:21.645Z,1020.15
2022-10-25T09:32:21.646Z,1020.16
2022-10-25T09:33:22.118Z,1020.17
2022-10-25T09:34:21.654Z,1020.15
2022-10-25T09:35:21.642Z,1020.18
2022-10-25T09:36:21.648Z,1020.15
2022-10-25T09:37:21.646Z,1020.18
2022-10-25T09:38:22.102Z,1020.09
2022-10-25T09:39:21.661Z,1020.09
2022-10-25T09:40:21.702Z,1020.17
2022-10-25T09:41:21.646Z,1020.18
2022-10-25T09:42:21.651Z,1020.19
2022-10-25T09:43:21.655Z,1020.14
2022-10-25T09:44:21.685Z,1020.14
2022-10-25T09:45:21.661Z,1020.16
2022-10-25T09:46:21.641Z,1020.15
2022-10-25T09:47:21.659Z,1020.22
2022-10-25T09:48:22.012Z,1020.22
2022-10-25T09:49:21.683Z,1020.23
2022-10-25T09:50:21.663Z,1020.18
2022-10-25T09:51:21.662Z,1020.25
2022-10-25T09:52:21.656Z,1020.27
2022-10-25T09:53:24.077Z,1020.23
2022-10-25T09:54:21.681Z,1020.21
2022-10-25T09:55:21.661Z,1020.21
2022-10-25T09:56:21.663Z,1020.21
2022-10-25T09:57:21.657Z,1020.15
2022-10-25T09:58:21.659Z,1020.23
2022-10-25T09:59:21.669Z,1020.18
2022-10-25T10:00:21.660Z,1020.16
2022-10-25T10:01:21.824Z,1020.16
2022-10-25T10:02:21.818Z,1020.15
2022-10-25T10:03:21.852Z,1020.14
2022-10-25T10:04:21.651Z,1020.16
2022-10-25T10:05:21.661Z,1020.14
2022-10-25T10:06:21.665Z,1020.1
2022-10-25T10:07:21.749Z,1020.14
2022-10-25T10:08:21.660Z,1020.16
2022-10-25T10:09:21.678Z,1020.16
2022-10-25T10:10:21.698Z,1020.12
2022-10-25T10:11:21.661Z,1020.13
2022-10-25T10:12:21.664Z,1020.15
2022-10-25T10:13:21.687Z,1020.13
2022-10-25T10:14:21.670Z,1020.14
2022-10-25T10:15:21.666Z,1020.12
2022-10-25T10:16:21.689Z,1020.12
2022-10-25T10:17:21.690Z,1020.16
2022-10-25T10:18:21.771Z,1020.16
2022-10-25T10:19:21.674Z,1020.19
2022-10-25T10:20:21.669Z,1020.16
2022-10-25T10:21:21.659Z,1020.16
2022-10-25T10:22:21.665Z,1020.12
2022-10-25T10:23:21.665Z,1020.08
2022-10-25T10:24:21.679Z,1020.09
2022-10-25T10:25:21.684Z,1020.1
2022-10-25T10:26:21.655Z,1020.06
2022-10-25T10:27:21.660Z,1020.04
2022-10-25T10:28:21.656Z,1020.06
2022-10-25T10:29:21.674Z,1020.06
2022-10-25T10:30:21.660Z,1020.01
2022-10-25T10:31:21.663Z,1020.04
2022-10-25T10:32:21.653Z,1020.12
2022-10-25T10:33:21.659Z,1020.09
2022-10-25T10:34:21.729Z,1020.06
2022-10-25T10:35:21.663Z,1019.99
2022-10-25T10:36:21.661Z,1019.99
2022-10-25T10:37:21.674Z,1020
2022-10-25T10:38:21.656Z,1020.03
2022-10-25T10:39:21.665Z,1020.02
2022-10-25T10:40:21.654Z,1020
2022-10-25T10:41:21.664Z,1019.95
2022-10-25T10:42:21.778Z,1019.95
2022-10-25T10:43:21.651Z,1019.98
2022-10-25T10:44:21.657Z,1020.04
2022-10-25T10:45:21.644Z,1020.04
2022-10-25T10:46:21.644Z,1020.02
2022-10-25T10:47:21.645Z,1020.03
2022-10-25T10:48:21.647Z,1019.98
2022-10-25T10:49:21.657Z,1019.99
2022-10-25T10:50:21.653Z,1020.05
2022-10-25T10:51:42.911Z,1020.08
2022-10-25T10:53:21.647Z,1020.01
2022-10-25T10:54:21.664Z,1020.05
2022-10-25T10:55:21.642Z,1020.08
2022-10-25T10:56:21.641Z,1020.09
2022-10-25T10:57:21.645Z,1020.11
2022-10-25T10:58:21.646Z,1020.09
2022-10-25T10:59:21.656Z,1020.11
2022-10-25T11:00:21.651Z,1020.08
2022-10-25T11:01:21.752Z,1020.03
2022-10-25T11:02:21.935Z,1020.04
2022-10-25T11:03:21.666Z,1020.03
2022-10-25T11:04:23.014Z,1020.04
2022-10-25T11:05:21.657Z,1020.06
2022-10-25T11:06:21.663Z,1020.01
2022-10-25T11:07:21.672Z,1020.02
2022-10-25T11:08:21.673Z,1020.03
2022-10-25T11:09:21.678Z,1020.03
2022-10-25T11:10:21.655Z,1020.09
2022-10-25T11:11:21.650Z,1020.02
2022-10-25T11:12:21.727Z,1020.04
2022-10-25T11:13:21.837Z,1020.04
2022-10-25T11:14:21.671Z,1020.09
2022-10-25T11:15:21.663Z,1020.04
2022-10-25T11:16:24.342Z,1020.03
2022-10-25T11:17:21.656Z,1020.02
2022-10-25T11:18:21.654Z,1020.06
2022-10-25T11:19:21.677Z,1020.08
2022-10-25T11:20:21.659Z,1020.04
2022-10-25T11:21:21.658Z,1020.11
2022-10-25T11:22:21.653Z,1020.08
2022-10-25T11:23:21.664Z,1020.12
2022-10-25T11:24:21.674Z,1020.08
2022-10-25T11:25:21.665Z,1020.12
2022-10-25T11:26:21.667Z,1020.12
2022-10-25T11:27:21.665Z,1020.1
2022-10-25T11:28:21.663Z,1020.12
2022-10-25T11:29:21.681Z,1020.12
2022-10-25T11:30:21.648Z,1020.09
2022-10-25T11:31:21.660Z,1020.15
2022-10-25T11:32:21.727Z,1020.1
2022-10-25T11:33:21.668Z,1020.06
2022-10-25T11:34:21.711Z,1020.11
2022-10-25T11:35:21.663Z,1020.15
2022-10-25T11:36:21.660Z,1020.16
2022-10-25T11:37:21.658Z,1020.14
2022-10-25T11:38:21.661Z,1020.14
2022-10-25T11:39:21.679Z,1020.21
2022-10-25T11:40:21.640Z,1020.17
2022-10-25T11:41:21.661Z,1020.18
2022-10-25T11:42:21.788Z,1020.24
2022-10-25T11:43:21.658Z,1020.23
2022-10-25T11:44:21.673Z,1020.28
2022-10-25T11:45:21.669Z,1020.27
2022-10-25T11:46:21.662Z,1020.26
2022-10-25T11:47:21.654Z,1020.25
2022-10-25T11:48:21.671Z,1020.25
2022-10-25T11:49:21.666Z,1020.25
2022-10-25T11:50:21.652Z,1020.26
2022-10-25T11:51:21.645Z,1020.29
2022-10-25T11:52:21.656Z,1020.31
2022-10-25T11:53:21.655Z,1020.34
2022-10-25T11:54:21.666Z,1020.27
2022-10-25T11:55:21.639Z,1020.31
2022-10-25T11:56:21.644Z,1020.33
2022-10-25T11:57:21.659Z,1020.36
2022-10-25T11:58:21.644Z,1020.34
2022-10-25T11:59:21.688Z,1020.32
2022-10-25T12:00:21.714Z,1020.34
2022-10-25T12:01:21.737Z,1020.31
2022-10-25T12:02:21.715Z,1020.32
2022-10-25T12:03:21.644Z,1020.29
2022-10-25T12:04:25.493Z,1020.26
2022-10-25T12:05:21.646Z,1020.33
2022-10-25T12:06:21.649Z,1020.29
2022-10-25T12:07:21.648Z,1020.28
2022-10-25T12:08:21.646Z,1020.27
2022-10-25T12:09:21.664Z,1020.27
2022-10-25T12:10:21.661Z,1020.25
2022-10-25T12:11:21.647Z,1020.28
2022-10-25T12:12:21.653Z,1020.27
2022-10-25T12:13:21.662Z,1020.26
2022-10-25T12:14:21.679Z,1020.26